createdAt,value
2022-11-14T00:02:13.801Z,5.90
2022-11-14T00:04:40.444Z,4.50
2022-11-14T00:07:07.100Z,4.50
2022-11-14T00:09:33.812Z,4.50
2022-11-14T00:12:00.485Z,4.60
2022-11-14T00:14:27.242Z,4.50
2022-11-14T00:16:53.855Z,4.50
2022-11-14T00:19:20.476Z,4.50
2022-11-14T00:21:47.123Z,4.50
2022-11-14T00:24:13.752Z,4.50
2022-11-14T00:26:40.435Z,4.50
2022-11-14T00:29:07.016Z,4.60
2022-11-14T00:31:33.642Z,4.60
2022-11-14T00:34:00.325Z,4.60
2022-11-14T00:36:27.012Z,4.60
2022-11-14T00:38:54.791Z,4.60
2022-11-14T00:41:21.581Z,4.50
2022-11-14T00:43:48.140Z,4.60
2022-11-14T00:46:14.860Z,4.60
2022-11-14T00:48:41.482Z,4.60
2022-11-14T00:51:08.122Z,4.60
2022-11-14T00:53:34.873Z,4.50
2022-11-14T00:56:01.556Z,4.60
2022-11-14T00:58:28.510Z,4.60
2022-11-14T01:00:55.494Z,4.60
2022-11-14T01:03:22.196Z,6.20
2022-11-14T01:05:49.641Z,4.60
2022-11-14T01:08:17.442Z,4.50
2022-11-14T01:10:45.590Z,4.60
2022-11-14T01:13:12.504Z,4.50
2022-11-14T01:15:40.172Z,5.80
2022-11-14T01:18:06.777Z,4.60
2022-11-14T01:20:33.464Z,4.50
2022-11-14T01:23:00.113Z,4.60
2022-11-14T01:25:26.871Z,4.50
2022-11-14T01:27:53.471Z,4.60
2022-11-14T01:30:20.118Z,4.60
2022-11-14T01:32:46.690Z,4.50
2022-11-14T01:35:13.362Z,4.50
2022-11-14T01:37:40.050Z,6.30
2022-11-14T01:40:06.992Z,5.90
2022-11-14T01:42:33.595Z,4.50
2022-11-14T01:45:00.575Z,4.40
2022-11-14T01:47:28.871Z,4.50
2022-11-14T01:49:59.455Z,5.80
2022-11-14T01:52:31.636Z,4.40
2022-11-14T01:54:59.672Z,4.40
2022-11-14T01:57:46.840Z,4.40
2022-11-14T02:00:13.677Z,4.40
2022-11-14T02:02:41.083Z,4.40
2022-11-14T02:05:09.181Z,4.40
2022-11-14T02:07:37.366Z,4.30
2022-11-14T02:10:06.264Z,4.40
2022-11-14T02:12:33.278Z,4.40
2022-11-14T02:15:00.779Z,4.50
2022-11-14T02:17:30.597Z,4.50
2022-11-14T02:20:14.727Z,4.50
2022-11-14T02:22:42.231Z,4.40
2022-11-14T02:25:10.098Z,4.60
2022-11-14T02:27:38.068Z,4.30
2022-11-14T02:30:09.712Z,4.50
2022-11-14T02:35:22.949Z,5.90
2022-11-14T02:37:49.558Z,4.50
2022-11-14T02:40:16.426Z,4.50
2022-11-14T02:42:43.051Z,4.40
2022-11-14T02:45:10.599Z,4.40
2022-11-14T02:47:37.224Z,4.40
2022-11-14T02:50:04.087Z,4.40
2022-11-14T02:52:30.785Z,4.30
2022-11-14T02:54:57.343Z,4.30
2022-11-14T02:57:24.024Z,4.30
2022-11-14T02:59:50.749Z,4.80
2022-11-14T03:02:17.459Z,4.30
2022-11-14T03:04:44.707Z,4.30
2022-11-14T03:07:11.646Z,5.00
2022-11-14T03:09:38.258Z,4.50
2022-11-14T03:12:04.913Z,4.20
2022-11-14T03:14:31.906Z,4.20
2022-11-14T03:16:58.486Z,4.20
2022-11-14T03:19:25.185Z,4.20
2022-11-14T03:21:51.860Z,4.80
2022-11-14T03:24:18.568Z,4.20
2022-11-14T03:26:45.251Z,4.10
2022-11-14T03:29:11.855Z,4.20
2022-11-14T03:31:38.491Z,4.20
2022-11-14T03:34:05.121Z,4.20
2022-11-14T03:36:31.801Z,4.20
2022-11-14T03:38:58.525Z,4.20
2022-11-14T03:41:25.210Z,5.20
2022-11-14T03:43:51.957Z,4.20
2022-11-14T03:46:18.507Z,4.20
2022-11-14T03:48:45.138Z,6.10
2022-11-14T03:51:11.721Z,4.20
2022-11-14T03:53:38.440Z,4.20
2022-11-14T03:56:05.185Z,4.20
2022-11-14T03:58:32.345Z,4.20
2022-11-14T04:00:59.266Z,4.20
2022-11-14T04:03:25.966Z,4.20
2022-11-14T04:05:52.753Z,4.10
2022-11-14T04:08:19.413Z,4.10
2022-11-14T04:10:49.383Z,4.10
2022-11-14T04:13:16.025Z,4.00
2022-11-14T04:15:42.626Z,4.00
2022-11-14T04:18:09.162Z,3.90
2022-11-14T04:20:35.778Z,3.90
2022-11-14T04:23:02.572Z,4.00
2022-11-14T04:25:29.199Z,4.00
2022-11-14T04:27:55.838Z,4.00
2022-11-14T04:30:22.528Z,4.00
2022-11-14T04:32:49.360Z,4.00
2022-11-14T04:35:16.304Z,4.00
2022-11-14T04:37:43.049Z,4.00
2022-11-14T04:40:09.830Z,4.00
2022-11-14T04:42:36.450Z,4.00
2022-11-14T04:45:03.169Z,4.00
2022-11-14T04:47:29.800Z,4.00
2022-11-14T04:49:56.444Z,4.00
2022-11-14T04:52:23.083Z,4.10
2022-11-14T04:54:49.710Z,4.00
2022-11-14T04:57:17.881Z,4.10
2022-11-14T04:59:44.594Z,4.60
2022-11-14T05:02:11.134Z,5.30
2022-11-14T05:04:37.925Z,4.10
2022-11-14T05:07:04.768Z,4.10
2022-11-14T05:09:31.469Z,4.10
2022-11-14T05:11:58.094Z,4.10
2022-11-14T05:14:24.804Z,4.10
2022-11-14T05:16:51.460Z,4.10
2022-11-14T05:19:18.063Z,5.60
2022-11-14T05:21:44.613Z,4.10
2022-11-14T05:24:11.209Z,4.10
2022-11-14T05:26:38.079Z,5.60
2022-11-14T05:29:04.707Z,4.20
2022-11-14T05:31:31.320Z,4.20
2022-11-14T05:33:58.037Z,4.10
2022-11-14T05:36:24.633Z,4.10
2022-11-14T05:38:51.244Z,4.10
2022-11-14T05:41:20.091Z,4.10
2022-11-14T05:43:46.730Z,4.10
2022-11-14T05:46:14.125Z,4.20
2022-11-14T05:48:40.934Z,4.10
2022-11-14T05:51:09.536Z,5.50
2022-11-14T05:53:36.206Z,4.20
2022-11-14T05:56:04.201Z,6.00
2022-11-14T05:58:31.984Z,4.20
2022-11-14T06:01:08.870Z,4.20
2022-11-14T06:03:36.917Z,4.00
2022-11-14T06:06:04.651Z,4.00
2022-11-14T06:08:31.761Z,4.00
2022-11-14T06:11:06.161Z,4.00
2022-11-14T06:13:33.438Z,3.90
2022-11-14T06:16:04.163Z,5.60
2022-11-14T06:18:31.712Z,4.00
2022-11-14T06:20:59.005Z,4.00
2022-11-14T06:23:25.620Z,4.00
2022-11-14T06:25:52.280Z,4.00
2022-11-14T06:28:18.913Z,4.00
2022-11-14T06:30:45.458Z,3.90
2022-11-14T06:33:12.068Z,3.90
2022-11-14T06:35:38.755Z,4.00
2022-11-14T06:38:05.335Z,3.90
2022-11-14T06:40:33.810Z,3.90
2022-11-14T06:43:00.454Z,3.70
2022-11-14T06:45:27.124Z,3.80
2022-11-14T06:47:53.831Z,3.80
2022-11-14T06:50:20.484Z,3.70
2022-11-14T06:52:47.336Z,3.70
2022-11-14T06:55:13.916Z,3.70
2022-11-14T06:57:40.765Z,4.40
2022-11-14T07:00:07.879Z,3.30
2022-11-14T07:02:34.578Z,3.10
2022-11-14T07:05:01.645Z,3.10
2022-11-14T07:07:28.942Z,2.90
2022-11-14T07:09:56.559Z,2.90
2022-11-14T07:12:23.111Z,2.90
2022-11-14T07:14:49.708Z,2.80
2022-11-14T07:17:16.294Z,2.80
2022-11-14T07:19:42.873Z,2.80
2022-11-14T07:22:09.568Z,2.80
2022-11-14T07:24:36.199Z,2.80
2022-11-14T07:27:02.879Z,2.90
2022-11-14T07:29:29.532Z,2.90
2022-11-14T07:31:56.161Z,2.90
2022-11-14T07:34:22.860Z,2.90
2022-11-14T07:36:50.661Z,3.00
2022-11-14T07:39:17.404Z,2.90
2022-11-14T07:41:44.037Z,3.00
2022-11-14T07:44:10.643Z,3.10
2022-11-14T07:46:37.516Z,3.10
2022-11-14T07:49:04.163Z,3.10
2022-11-14T07:51:30.721Z,3.20
2022-11-14T07:53:57.470Z,3.40
2022-11-14T07:56:25.878Z,3.50
2022-11-14T07:58:52.498Z,3.80
2022-11-14T08:01:19.131Z,4.00
2022-11-14T08:03:46.524Z,4.10
2022-11-14T08:06:14.560Z,4.30
2022-11-14T08:08:41.196Z,4.50
2022-11-14T08:11:07.854Z,4.60
2022-11-14T08:13:34.488Z,4.80
2022-11-14T08:16:11.954Z,4.90
2022-11-14T08:18:39.300Z,5.00
2022-11-14T08:21:06.038Z,5.20
2022-11-14T08:23:32.691Z,5.20
2022-11-14T08:26:00.078Z,5.30
2022-11-14T08:28:27.286Z,5.30
2022-11-14T08:30:58.532Z,5.40
2022-11-14T08:33:25.167Z,5.40
2022-11-14T08:35:51.819Z,5.50
2022-11-14T08:38:18.612Z,7.00
2022-11-14T08:40:45.219Z,6.80
2022-11-14T08:43:11.810Z,5.50
2022-11-14T08:45:38.482Z,5.50
2022-11-14T08:48:05.798Z,5.60
2022-11-14T08:50:32.427Z,5.60
2022-11-14T08:52:59.070Z,7.30
2022-11-14T08:55:25.735Z,5.70
2022-11-14T08:57:53.371Z,5.80
2022-11-14T09:00:20.192Z,5.80
2022-11-14T09:02:47.196Z,5.80
2022-11-14T09:05:13.817Z,5.90
2022-11-14T09:07:40.379Z,5.90
2022-11-14T09:10:07.423Z,6.00
2022-11-14T09:12:33.992Z,6.00
2022-11-14T09:15:01.031Z,6.10
2022-11-14T09:17:27.638Z,6.20
2022-11-14T09:19:54.819Z,6.30
2022-11-14T09:22:21.627Z,6.40
2022-11-14T09:24:49.486Z,6.50
2022-11-14T09:27:16.208Z,6.50
2022-11-14T09:29:43.721Z,6.50
2022-11-14T09:32:10.381Z,6.40
2022-11-14T09:34:37.389Z,7.90
2022-11-14T09:37:04.028Z,6.60
2022-11-14T09:39:30.841Z,6.60
2022-11-14T09:42:13.076Z,6.70
2022-11-14T09:44:43.875Z,6.70
2022-11-14T09:47:37.062Z,6.80
2022-11-14T09:50:11.304Z,6.80
2022-11-14T09:52:47.537Z,6.90
2022-11-14T09:55:17.490Z,7.00
2022-11-14T09:57:45.483Z,7.20
2022-11-14T10:00:17.002Z,9.20
2022-11-14T10:03:03.104Z,7.40
2022-11-14T10:05:29.647Z,7.50
2022-11-14T10:07:56.393Z,7.70
2022-11-14T10:10:38.375Z,7.70
2022-11-14T10:13:05.348Z,7.70
2022-11-14T10:15:50.958Z,8.70
2022-11-14T10:18:26.687Z,7.60
2022-11-14T10:20:54.697Z,7.60
2022-11-14T10:23:40.645Z,8.50
2022-11-14T10:26:10.481Z,7.60
2022-11-14T10:28:40.513Z,7.70
2022-11-14T10:31:25.365Z,7.70
2022-11-14T10:34:11.012Z,7.80
2022-11-14T10:36:37.703Z,7.80
2022-11-14T10:39:11.038Z,9.20
2022-11-14T10:42:08.293Z,8.60
2022-11-14T10:44:37.957Z,8.00
2022-11-14T10:47:06.921Z,8.00
2022-11-14T10:49:38.716Z,8.10
2022-11-14T10:52:09.980Z,8.20
2022-11-14T10:54:44.491Z,8.30
2022-11-14T10:57:18.623Z,8.30
2022-11-14T10:59:45.382Z,8.40
2022-11-14T11:02:12.034Z,9.10
2022-11-14T11:04:40.046Z,9.00
2022-11-14T11:07:06.657Z,8.50
2022-11-14T11:09:53.067Z,8.50
2022-11-14T11:12:20.950Z,10.20
2022-11-14T11:14:48.710Z,9.80
2022-11-14T11:17:18.493Z,8.60
2022-11-14T11:19:47.277Z,8.70
2022-11-14T11:22:27.815Z,10.10
2022-11-14T11:24:54.430Z,8.60
2022-11-14T11:27:25.890Z,8.70
2022-11-14T11:30:06.961Z,8.70
2022-11-14T11:32:33.612Z,8.70
2022-11-14T11:35:01.245Z,8.70
2022-11-14T11:37:40.345Z,10.00
2022-11-14T11:40:12.165Z,8.70
2022-11-14T11:43:36.691Z,8.70
2022-11-14T11:45:25.714Z,8.80
2022-11-14T11:48:04.068Z,9.90
2022-11-14T11:50:30.716Z,9.10
2022-11-14T11:53:16.127Z,8.80
2022-11-14T11:55:54.899Z,8.90
2022-11-14T11:58:24.601Z,8.90
2022-11-14T12:00:52.940Z,9.00
2022-11-14T12:03:20.810Z,10.70
2022-11-14T12:05:53.597Z,9.20
2022-11-14T12:08:21.684Z,9.20
2022-11-14T12:10:49.057Z,9.40
2022-11-14T12:13:15.744Z,10.20
2022-11-14T12:15:48.722Z,9.80
2022-11-14T12:18:43.995Z,9.90
2022-11-14T12:21:27.986Z,10.10
2022-11-14T12:24:14.818Z,10.20
2022-11-14T12:26:41.434Z,10.30
2022-11-14T12:29:23.990Z,10.50
2022-11-14T12:31:56.920Z,10.50
2022-11-14T12:34:29.441Z,10.60
2022-11-14T12:36:56.145Z,10.80
2022-11-14T12:39:27.228Z,10.90
2022-11-14T12:42:14.536Z,10.90
2022-11-14T12:44:41.267Z,10.90
2022-11-14T12:47:07.872Z,11.70
2022-11-14T12:49:38.562Z,11.40
2022-11-14T12:52:25.100Z,10.90
2022-11-14T12:54:51.741Z,11.80
2022-11-14T12:57:45.447Z,12.40
2022-11-14T13:00:12.381Z,11.90
2022-11-14T13:02:57.137Z,10.80
2022-11-14T13:05:32.777Z,10.80
2022-11-14T13:08:07.856Z,10.80
2022-11-14T13:10:38.601Z,12.10
2022-11-14T13:13:34.645Z,10.80
2022-11-14T13:16:21.191Z,10.90
2022-11-14T13:19:10.919Z,11.30
2022-11-14T13:21:46.911Z,10.90
2022-11-14T13:24:16.167Z,11.10
2022-11-14T13:26:50.137Z,11.10
2022-11-14T13:29:35.626Z,11.20
2022-11-14T13:32:02.213Z,11.30
2022-11-14T13:34:52.162Z,11.50
2022-11-14T13:37:37.682Z,11.50
2022-11-14T13:40:17.025Z,11.50
2022-11-14T13:42:59.374Z,11.50
2022-11-14T13:45:44.325Z,11.60
2022-11-14T13:48:29.698Z,11.50
2022-11-14T13:51:06.411Z,11.50
2022-11-14T13:53:45.038Z,11.60
2022-11-14T13:56:50.393Z,11.40
2022-11-14T13:59:25.652Z,11.30
2022-11-14T14:02:03.465Z,11.10
2022-11-14T14:04:53.346Z,11.00
2022-11-14T14:07:20.010Z,10.90
2022-11-14T14:10:05.487Z,10.80
2022-11-14T14:12:41.249Z,10.70
2022-11-14T14:15:27.513Z,10.60
2022-11-14T14:18:06.480Z,10.60
2022-11-14T14:20:45.473Z,10.50
2022-11-14T14:23:15.711Z,10.50
2022-11-14T14:25:56.978Z,10.40
2022-11-14T14:28:41.922Z,10.40
2022-11-14T14:31:11.211Z,10.40
2022-11-14T14:33:45.178Z,10.30
2022-11-14T14:36:29.169Z,10.30
2022-11-14T14:39:14.471Z,10.20
2022-11-14T14:41:41.173Z,10.20
2022-11-14T14:44:26.703Z,10.20
2022-11-14T14:46:54.126Z,10.10
2022-11-14T14:49:27.218Z,11.70
2022-11-14T14:51:58.323Z,10.00
2022-11-14T14:54:26.434Z,11.30
2022-11-14T14:56:54.320Z,11.60
2022-11-14T14:59:24.925Z,10.00
2022-11-14T15:01:51.749Z,9.90
2022-11-14T15:04:19.017Z,11.20
2022-11-14T15:06:46.874Z,10.00
2022-11-14T15:09:24.255Z,9.90
2022-11-14T15:11:52.455Z,9.80
2022-11-14T15:14:23.394Z,9.80
2022-11-14T15:16:51.123Z,9.80
2022-11-14T15:19:22.833Z,9.80
2022-11-14T15:22:03.056Z,11.10
2022-11-14T15:24:29.785Z,9.70
2022-11-14T15:26:56.361Z,9.70
2022-11-14T15:29:24.488Z,10.50
2022-11-14T15:31:58.424Z,10.50
2022-11-14T15:34:26.561Z,9.60
2022-11-14T15:37:19.329Z,9.60
2022-11-14T15:39:46.463Z,9.50
2022-11-14T15:42:21.051Z,10.70
2022-11-14T15:44:49.023Z,9.40
2022-11-14T15:47:22.052Z,9.40
2022-11-14T15:49:58.342Z,9.30
2022-11-14T15:52:36.606Z,9.20
2022-11-14T15:55:03.913Z,9.20
2022-11-14T15:57:31.696Z,9.10
2022-11-14T15:59:58.322Z,9.10
2022-11-14T16:02:30.564Z,10.60
2022-11-14T16:04:58.134Z,9.00
2022-11-14T16:07:25.259Z,8.90
2022-11-14T16:09:52.156Z,8.80
2022-11-14T16:12:18.792Z,8.80
2022-11-14T16:14:45.378Z,9.90
2022-11-14T16:17:16.309Z,9.90
2022-11-14T16:19:43.283Z,8.70
2022-11-14T16:22:11.722Z,10.50
2022-11-14T16:24:38.330Z,9.20
2022-11-14T16:27:05.141Z,9.20
2022-11-14T16:29:31.828Z,9.40
2022-11-14T16:31:58.516Z,8.50
2022-11-14T16:34:25.881Z,8.40
2022-11-14T16:36:59.458Z,8.30
2022-11-14T16:39:26.199Z,8.20
2022-11-14T16:41:52.858Z,8.60
2022-11-14T16:44:19.566Z,8.90
2022-11-14T16:46:46.392Z,9.10
2022-11-14T16:49:17.131Z,8.00
2022-11-14T16:51:48.186Z,7.90
2022-11-14T16:54:16.288Z,7.90
2022-11-14T16:56:43.433Z,7.90
2022-11-14T16:59:10.896Z,7.80
2022-11-14T17:01:38.148Z,7.80
2022-11-14T17:04:05.262Z,9.10
2022-11-14T17:06:31.833Z,6.40
2022-11-14T17:08:59.019Z,7.80
2022-11-14T17:11:26.008Z,7.90
2022-11-14T17:13:54.012Z,7.90
2022-11-14T17:16:20.716Z,7.90
2022-11-14T17:18:51.583Z,7.80
2022-11-14T17:21:18.194Z,8.10
2022-11-14T17:23:44.779Z,9.30
2022-11-14T17:26:12.080Z,8.30
2022-11-14T17:28:40.432Z,8.30
2022-11-14T17:31:10.340Z,8.40
2022-11-14T17:33:37.115Z,8.30
2022-11-14T17:36:04.752Z,8.40
2022-11-14T17:38:32.109Z,8.90
2022-11-14T17:40:58.914Z,8.40
2022-11-14T17:43:25.574Z,8.40
2022-11-14T17:45:58.342Z,8.40
2022-11-14T17:48:25.040Z,8.40
2022-11-14T17:50:51.730Z,8.50
2022-11-14T17:53:18.779Z,8.60
2022-11-14T17:55:45.725Z,8.50
2022-11-14T17:58:12.713Z,9.90
2022-11-14T18:00:39.463Z,8.60
2022-11-14T18:03:06.148Z,8.70
2022-11-14T18:05:32.742Z,8.70
2022-11-14T18:07:59.429Z,9.30
2022-11-14T18:10:26.025Z,8.70
2022-11-14T18:12:52.618Z,8.70
2022-11-14T18:15:22.647Z,8.80
2022-11-14T18:17:52.013Z,9.70
2022-11-14T18:20:18.775Z,8.80
2022-11-14T18:22:45.408Z,8.80
2022-11-14T18:25:12.018Z,8.80
2022-11-14T18:27:38.704Z,8.80
2022-11-14T18:30:26.676Z,8.80
2022-11-14T18:32:52.219Z,8.70
2022-11-14T18:35:18.857Z,8.70
2022-11-14T18:37:45.530Z,8.80
2022-11-14T18:40:16.490Z,9.30
2022-11-14T18:42:43.700Z,8.70
2022-11-14T18:45:10.410Z,8.80
2022-11-14T18:47:37.079Z,8.70
2022-11-14T18:50:04.010Z,10.30
2022-11-14T18:52:30.627Z,8.70
2022-11-14T18:54:57.229Z,9.30
2022-11-14T18:57:23.965Z,9.60
2022-11-14T18:59:50.570Z,10.20
2022-11-14T19:02:17.258Z,10.30
2022-11-14T19:04:43.951Z,9.30
2022-11-14T19:07:10.653Z,10.10
2022-11-14T19:09:37.855Z,9.80
2022-11-14T19:12:21.939Z,8.60
2022-11-14T19:14:50.567Z,8.60
2022-11-14T19:17:20.939Z,8.50
2022-11-14T19:19:48.670Z,8.60
2022-11-14T19:22:15.840Z,8.70
2022-11-14T19:24:43.290Z,8.60
2022-11-14T19:27:09.956Z,10.00
2022-11-14T19:29:37.823Z,9.40
2022-11-14T19:32:04.635Z,8.40
2022-11-14T19:34:31.436Z,8.40
2022-11-14T19:37:00.774Z,8.40
2022-11-14T19:39:28.036Z,9.70
2022-11-14T19:41:54.675Z,9.80
2022-11-14T19:44:21.335Z,9.10
2022-11-14T19:46:48.426Z,8.70
2022-11-14T19:49:15.182Z,8.30
2022-11-14T19:51:41.788Z,9.80
2022-11-14T19:54:09.166Z,8.30
2022-11-14T19:56:35.779Z,9.40
2022-11-14T19:59:02.806Z,9.60
2022-11-14T20:01:29.700Z,9.80
2022-11-14T20:03:57.723Z,9.20
2022-11-14T20:06:32.241Z,8.10
2022-11-14T20:09:00.679Z,8.00
2022-11-14T20:11:28.087Z,8.00
2022-11-14T20:13:55.974Z,9.20
2022-11-14T20:16:27.980Z,8.80
2022-11-14T20:18:59.147Z,7.90
2022-11-14T20:21:27.283Z,9.40
2022-11-14T20:23:54.223Z,9.70
2022-11-14T20:26:21.206Z,7.80
2022-11-14T20:28:49.134Z,8.80
2022-11-14T20:31:17.196Z,9.00
2022-11-14T20:33:45.125Z,9.20
2022-11-14T20:36:13.171Z,8.80
2022-11-14T20:38:39.852Z,8.50
2022-11-14T20:41:06.608Z,7.50
2022-11-14T20:43:34.351Z,8.00
2022-11-14T20:46:02.387Z,7.60
2022-11-14T20:48:30.189Z,8.50
2022-11-14T20:51:03.700Z,8.40
2022-11-14T20:53:31.198Z,7.20
2022-11-14T20:55:58.589Z,8.60
2022-11-14T20:58:25.859Z,7.20
2022-11-14T21:00:52.707Z,7.10
2022-11-14T21:03:19.903Z,8.40
2022-11-14T21:05:46.845Z,7.00
2022-11-14T21:08:14.337Z,8.40
2022-11-14T21:10:48.335Z,6.90
2022-11-14T21:13:35.365Z,7.00
2022-11-14T21:16:02.814Z,6.80
2022-11-14T21:18:30.136Z,6.70
2022-11-14T21:21:00.022Z,8.30
2022-11-14T21:23:26.666Z,6.80
2022-11-14T21:26:00.278Z,6.90
2022-11-14T21:28:28.086Z,6.90
2022-11-14T21:30:54.772Z,8.10
2022-11-14T21:33:21.501Z,6.90
2022-11-14T21:35:48.163Z,6.90
2022-11-14T21:38:14.736Z,8.70
2022-11-14T21:40:41.415Z,8.30
2022-11-14T21:43:08.098Z,8.60
2022-11-14T21:45:34.783Z,7.00
2022-11-14T21:48:01.372Z,7.20
2022-11-14T21:50:28.059Z,7.40
2022-11-14T21:52:55.386Z,7.00
2022-11-14T21:55:22.019Z,8.10
2022-11-14T21:57:48.580Z,8.10
2022-11-14T22:00:15.490Z,6.90
2022-11-14T22:03:00.818Z,6.90
2022-11-14T22:05:27.475Z,6.80
2022-11-14T22:07:54.081Z,6.80
2022-11-14T22:10:20.704Z,6.80
2022-11-14T22:12:47.318Z,7.10
2022-11-14T22:15:13.973Z,6.70
2022-11-14T22:17:40.873Z,6.60
2022-11-14T22:20:07.963Z,6.60
2022-11-14T22:22:34.615Z,6.50
2022-11-14T22:25:01.264Z,7.40
2022-11-14T22:27:28.043Z,6.50
2022-11-14T22:29:54.624Z,6.60
2022-11-14T22:32:21.269Z,6.50
2022-11-14T22:34:47.940Z,6.50
2022-11-14T22:37:14.572Z,6.70
2022-11-14T22:39:41.210Z,6.50
2022-11-14T22:42:09.133Z,7.40
2022-11-14T22:44:35.758Z,6.50
2022-11-14T22:47:02.369Z,6.50
2022-11-14T22:49:28.994Z,6.50
2022-11-14T22:51:55.556Z,6.40
2022-11-14T22:54:22.217Z,6.30
2022-11-14T22:56:48.836Z,6.30
2022-11-14T22:59:15.445Z,6.30
2022-11-14T23:01:42.063Z,6.30
2022-11-14T23:04:08.949Z,6.30
2022-11-14T23:06:35.635Z,6.20
2022-11-14T23:09:02.741Z,6.10
2022-11-14T23:11:30.472Z,4.90
2022-11-14T23:13:57.839Z,6.10
2022-11-14T23:16:26.095Z,6.00
2022-11-14T23:18:54.089Z,6.00
2022-11-14T23:21:25.231Z,6.10
2022-11-14T23:23:52.536Z,6.10
2022-11-14T23:26:19.251Z,6.20
2022-11-14T23:28:45.939Z,6.30
2022-11-14T23:31:12.937Z,6.30
2022-11-14T23:33:39.878Z,6.40
2022-11-14T23:36:06.563Z,6.50
2022-11-14T23:38:33.183Z,6.50
2022-11-14T23:41:01.047Z,7.30
2022-11-14T23:43:28.703Z,6.50
2022-11-14T23:45:55.638Z,6.50
2022-11-14T23:48:22.687Z,6.50
2022-11-14T23:50:50.070Z,6.60
2022-11-14T23:53:16.738Z,7.20
2022-11-14T23:55:43.408Z,6.50
2022-11-14T23:58:10.041Z,6.50
